Time;durP1;ratioP1;P1;durP2;ratioP2;P2;SDS_P1;SDS_P2;PMS_P1;PMS_P2;Temp;Humidity;BMP_temperature;BMP_pressure;BME280_temperature;BME280_humidity;BME280_pressure;Samples;Min_cycle;Max_cycle;Signal;HPM_P1;HPM_P2
2023/01/05 00:00:09;;;;;;;37.67;20.10;;;;;;;9.59;71.87;100556.50;3120049;28;20053;-69
2023/01/05 00:01:41;;;;;;;38.50;21.25;;;;;;;9.85;71.87;100599.97;3119978;28;20060;-68
2023/01/05 00:03:13;;;;;;;42.90;20.95;;;;;;;9.90;72.06;100607.63;3120077;28;20041;-69
2023/01/05 00:04:45;;;;;;;39.72;20.13;;;;;;;9.84;71.98;100594.78;3119867;28;20054;-69
2023/01/05 00:06:18;;;;;;;45.25;20.98;;;;;;;9.90;71.65;100602.41;3119947;28;20045;-70
2023/01/05 00:07:50;;;;;;;39.00;19.23;;;;;;;9.88;71.74;100606.81;3119769;28;20094;-71
2023/01/05 00:09:22;;;;;;;38.85;20.40;;;;;;;9.78;71.69;100588.00;3119479;28;20115;-71
2023/01/05 00:22:33;;;;;;;35.20;20.20;;;;;;;9.70;72.21;100605.59;3119993;28;20045;-70
2023/01/05 00:24:05;;;;;;;42.38;20.80;;;;;;;9.66;72.16;100594.41;3120061;28;20048;-69
2023/01/05 00:25:38;;;;;;;41.75;21.58;;;;;;;9.67;72.60;100598.75;3119816;28;20056;-69
2023/01/05 00:27:10;;;;;;;40.28;21.67;;;;;;;9.59;72.58;100585.09;3119604;28;20123;-69
2023/01/05 00:28:42;;;;;;;45.05;21.92;;;;;;;9.65;72.36;100592.72;3119720;28;20511;-70
2023/01/05 00:30:17;;;;;;;42.15;22.40;;;;;;;9.63;72.71;100586.72;3119926;28;20046;-70
2023/01/05 00:31:49;;;;;;;40.60;21.38;;;;;;;9.65;72.61;100590.13;3119456;28;20053;-69
2023/01/05 00:33:21;;;;;;;40.88;21.30;;;;;;;9.65;72.64;100592.72;3119480;28;20049;-69
2023/01/05 00:34:54;;;;;;;40.10;21.38;;;;;;;9.65;72.37;100584.09;3119638;28;20183;-70
2023/01/05 00:36:26;;;;;;;42.63;21.60;;;;;;;9.64;72.66;100584.97;3119616;28;20053;-70
2023/01/05 00:37:59;;;;;;;35.67;19.17;;;;;;;9.62;72.40;100590.22;3119054;28;20487;-70
2023/01/05 00:39:30;;;;;;;41.78;21.15;;;;;;;9.62;72.74;100584.16;3119055;28;20076;-69
2023/01/05 00:41:02;;;;;;;41.10;21.85;;;;;;;9.61;72.53;100583.28;3119956;28;20050;-70
2023/01/05 00:42:33;;;;;;;41.00;20.65;;;;;;;9.61;72.62;100588.50;3120196;28;20050;-70
2023/01/05 00:44:05;;;;;;;43.38;21.20;;;;;;;9.57;72.72;100585.13;3120020;28;20446;-70
2023/01/05 00:45:37;;;;;;;44.08;20.58;;;;;;;9.54;72.71;100582.63;3119269;28;20057;-69
2023/01/05 00:47:08;;;;;;;41.50;20.55;;;;;;;9.53;72.75;100582.69;3119896;28;20118;-70
2023/01/05 00:48:40;;;;;;;40.67;22.05;;;;;;;9.58;72.66;100588.59;3119573;28;20590;-71
2023/01/05 00:50:15;;;;;;;38.65;21.02;;;;;;;9.52;72.88;100578.34;3119436;28;20483;-70
2023/01/05 00:51:47;;;;;;;43.33;20.90;;;;;;;9.55;72.87;100591.28;3119564;28;20167;-70
2023/01/05 00:53:21;;;;;;;45.95;21.80;;;;;;;9.56;72.93;100590.41;3119918;28;20050;-69
2023/01/05 00:54:52;;;;;;;44.05;21.98;;;;;;;9.54;73.27;100589.56;3119366;28;20422;-70
2023/01/05 00:56:24;;;;;;;46.03;22.88;;;;;;;9.51;73.18;100579.25;3119606;28;20045;-70
2023/01/05 00:57:56;;;;;;;45.80;21.85;;;;;;;9.52;73.14;100588.75;3119523;28;20053;-70
2023/01/05 00:59:28;;;;;;;45.95;21.10;;;;;;;9.52;73.41;100583.56;3119291;28;20122;-69
2023/01/05 01:00:59;;;;;;;38.35;20.55;;;;;;;9.50;73.16;100577.56;3119408;28;20103;-70
2023/01/05 01:02:31;;;;;;;40.55;20.83;;;;;;;9.35;73.55;100558.06;3119422;28;20597;-70
2023/01/05 01:04:03;;;;;;;41.78;21.50;;;;;;;9.48;73.50;100585.41;3119341;28;20574;-70
2023/01/05 01:05:34;;;;;;;40.08;21.65;;;;;;;9.48;73.45;100585.41;3119439;28;20049;-69
2023/01/05 01:07:07;;;;;;;35.70;20.40;;;;;;;9.30;73.74;100552.13;3119556;28;20054;-69
2023/01/05 01:08:40;;;;;;;45.67;21.90;;;;;;;9.47;73.49;100575.06;3119314;28;20049;-70
2023/01/05 01:10:12;;;;;;;41.08;21.52;;;;;;;9.44;73.53;100578.59;3119644;28;20060;-69
2023/01/05 01:11:44;;;;;;;45.53;21.08;;;;;;;9.37;73.69;100561.44;3119824;28;20061;-70
2023/01/05 01:13:16;;;;;;;41.05;21.35;;;;;;;9.38;73.85;100562.31;3119453;28;20090;-69
2023/01/05 01:14:48;;;;;;;43.97;21.05;;;;;;;9.42;73.87;100566.53;3119599;28;20107;-69
2023/01/05 01:16:20;;;;;;;38.53;20.60;;;;;;;9.37;73.79;100560.59;3119746;28;20091;-70
2023/01/05 01:17:52;;;;;;;39.03;20.52;;;;;;;9.43;73.65;100563.03;3119537;28;20312;-70
2023/01/05 01:19:26;;;;;;;41.38;20.30;;;;;;;9.43;74.15;100563.03;3119400;28;20049;-70
2023/01/05 01:20:59;;;;;;;36.13;19.45;;;;;;;9.43;73.68;100558.66;3119465;28;20120;-70
2023/01/05 01:22:31;;;;;;;39.05;19.83;;;;;;;9.36;73.96;100551.09;3119371;28;20102;-69
2023/01/05 01:24:05;;;;;;;41.55;20.17;;;;;;;9.43;73.92;100558.66;3119334;28;20119;-70
2023/01/05 01:25:38;;;;;;;39.97;20.23;;;;;;;9.41;73.84;100557.03;3121711;28;20102;-70
2023/01/05 01:27:10;;;;;;;39.90;20.33;;;;;;;9.39;74.06;100556.22;3121956;28;20501;-69
2023/01/05 01:28:42;;;;;;;38.88;19.05;;;;;;;9.39;74.39;100557.06;3121821;28;20072;-71
2023/01/05 01:30:14;;;;;;;40.63;20.80;;;;;;;9.38;74.01;100552.78;3121645;28;20052;-69
2023/01/05 01:31:48;;;;;;;40.55;19.63;;;;;;;9.38;73.97;100550.16;3121780;28;20080;-69
2023/01/05 01:33:19;;;;;;;;;;;;;;;9.29;73.98;100550.44;3122193;28;20041;-70
2023/01/05 01:34:51;;;;;;;41.15;19.40;;;;;;;9.27;74.29;100550.47;3121770;28;20305;-71
2023/01/05 01:36:23;;;;;;;42.25;19.25;;;;;;;9.31;74.47;100546.88;3121683;28;20510;-70
2023/01/05 01:37:55;;;;;;;35.53;19.13;;;;;;;9.32;74.32;100546.00;3121751;28;20103;-71
2023/01/05 01:39:28;;;;;;;39.15;20.58;;;;;;;9.34;73.96;100544.19;3121576;28;20053;-70
2023/01/05 01:41:00;;;;;;;36.50;18.90;;;;;;;9.32;74.48;100542.53;3122006;28;20488;-71
2023/01/05 01:42:32;;;;;;;38.17;18.55;;;;;;;9.27;74.51;100529.66;3121702;28;20435;-69
2023/01/05 01:44:46;;;;;;;40.80;19.38;;;;;;;9.26;74.08;100519.34;3121504;28;20049;-71
2023/01/05 01:46:19;;;;;;;38.95;19.13;;;;;;;9.26;74.60;100527.97;3084766;28;20098;-70
2023/01/05 01:47:56;;;;;;;38.55;20.40;;;;;;;9.23;74.64;100520.25;3112545;28;20042;-70
2023/01/05 01:49:26;;;;;;;40.47;19.40;;;;;;;9.26;74.48;100527.13;3121450;28;20439;-70
2023/01/05 01:51:01;;;;;;;40.78;19.17;;;;;;;9.18;74.55;100506.53;3121556;28;20053;-70
2023/01/05 01:52:34;;;;;;;40.47;19.83;;;;;;;9.27;74.72;100521.88;3121561;28;20053;-70
2023/01/05 01:54:10;;;;;;;39.20;18.80;;;;;;;9.28;74.38;100520.13;3121741;28;20045;-70
2023/01/05 01:55:44;;;;;;;35.80;18.38;;;;;;;9.21;74.40;100514.25;3121557;28;20057;-70
2023/01/05 01:57:16;;;;;;;40.00;18.73;;;;;;;9.21;74.59;100514.25;3121787;28;20068;-69
2023/01/05 01:58:48;;;;;;;39.22;19.80;;;;;;;9.23;74.33;100506.38;3121532;28;20065;-69
2023/01/05 02:00:21;;;;;;;43.15;20.35;;;;;;;9.20;74.73;100511.69;3109332;28;20140;-70
2023/01/05 02:01:57;;;;;;;40.40;20.35;;;;;;;9.24;74.67;100518.50;3120928;28;20069;-70
2023/01/05 02:03:30;;;;;;;49.00;22.20;;;;;;;9.22;74.53;100515.94;3121147;28;20111;-70
2023/01/05 02:05:06;;;;;;;40.78;22.23;;;;;;;9.20;74.69;100515.16;3121448;28;20045;-70
2023/01/05 02:06:38;;;;;;;42.78;22.67;;;;;;;8.21;74.84;100342.97;3121157;28;20199;-68
2023/01/05 02:08:12;;;;;;;48.17;23.58;;;;;;;9.20;74.52;100501.28;3121314;28;20045;-70
2023/01/05 02:09:44;;;;;;;47.17;24.60;;;;;;;9.18;74.80;100503.09;3121321;28;20507;-70
2023/01/05 02:11:35;;;;;;;44.85;23.40;;;;;;;9.14;74.45;100499.75;3121055;28;20049;-68
2023/01/05 02:13:20;;;;;;;49.47;25.42;;;;;;;8.98;74.45;100472.47;3121428;28;20083;-69
2023/01/05 02:15:01;;;;;;;52.17;25.15;;;;;;;9.09;74.82;100488.59;3121358;28;20049;-68
2023/01/05 02:16:43;;;;;;;49.08;25.80;;;;;;;9.10;74.93;100500.69;3121336;28;20103;-70
2023/01/05 02:18:36;;;;;;;54.88;26.33;;;;;;;9.06;74.68;100494.75;3112802;28;20049;-69
2023/01/05 02:20:46;;;;;;;49.28;25.67;;;;;;;9.08;74.82;100492.09;3116423;28;20206;-70
2023/01/05 02:22:40;;;;;;;58.40;27.20;;;;;;;9.05;74.91;100485.25;3121118;28;20741;-71
2023/01/05 02:24:42;;;;;;;49.77;25.33;;;;;;;9.01;74.87;100491.41;3120960;28;20470;-70
2023/01/05 02:26:37;;;;;;;53.13;25.75;;;;;;;8.97;74.91;100487.19;3120528;28;20312;-71
2023/01/05 02:28:23;;;;;;;49.35;26.25;;;;;;;8.92;75.04;100486.47;3121074;28;20060;-69
2023/01/05 02:30:27;;;;;;;47.67;25.20;;;;;;;8.89;75.07;100484.81;3121087;28;20054;-69
2023/01/05 02:32:11;;;;;;;57.08;26.55;;;;;;;8.87;75.29;100484.00;3121113;28;20049;-69
2023/01/05 02:34:06;;;;;;;45.10;24.13;;;;;;;8.86;75.15;100490.09;3120983;28;20123;-69
2023/01/05 02:35:46;;;;;;;52.33;25.65;;;;;;;8.85;75.14;100482.34;3120078;28;20099;-69
2023/01/05 02:37:26;;;;;;;52.88;27.85;;;;;;;8.84;75.33;100486.69;3120299;28;20094;-70
2023/01/05 02:39:06;;;;;;;49.33;24.83;;;;;;;8.84;75.36;100491.00;3120935;28;20144;-70
2023/01/05 02:40:42;;;;;;;51.60;26.15;;;;;;;8.81;75.35;100489.34;3120567;28;20439;-71
2023/01/05 02:42:19;;;;;;;46.50;24.23;;;;;;;8.78;75.23;100483.38;3120787;28;20102;-69
2023/01/05 02:43:52;;;;;;;48.50;23.88;;;;;;;8.79;75.44;100491.16;3120770;28;20383;-69
2023/01/05 02:45:24;;;;;;;50.28;25.35;;;;;;;8.78;75.27;100485.97;3120924;28;20045;-69
2023/01/05 02:47:03;;;;;;;47.33;25.70;;;;;;;8.75;75.24;100488.66;3120856;28;20503;-70
2023/01/05 02:48:35;;;;;;;49.83;25.70;;;;;;;8.72;75.27;100479.22;3117704;28;20407;-69
2023/01/05 02:50:12;;;;;;;52.63;25.88;;;;;;;8.02;75.12;100375.47;3120967;28;20510;-69
2023/01/05 02:51:54;;;;;;;45.42;24.27;;;;;;;8.71;75.28;100487.06;3120658;28;20049;-69
2023/01/05 02:53:32;;;;;;;42.20;23.15;;;;;;;8.64;75.40;100476.84;3120795;28;20545;-71
2023/01/05 02:55:08;;;;;;;49.15;24.85;;;;;;;8.68;75.60;100476.75;3120941;28;20056;-70
2023/01/05 02:56:45;;;;;;;52.60;24.88;;;;;;;8.65;75.48;100480.28;3120495;28;20049;-70
2023/01/05 02:58:21;;;;;;;47.08;24.55;;;;;;;8.63;75.36;100485.50;3120899;28;20048;-70
2023/01/05 02:59:54;;;;;;;46.60;25.65;;;;;;;8.61;75.75;100478.66;3120829;28;20051;-70
2023/01/05 03:01:30;;;;;;;53.22;26.35;;;;;;;8.59;75.81;100476.09;3120693;28;20053;-70
2023/01/05 03:03:09;;;;;;;54.72;26.77;;;;;;;8.57;75.60;100469.22;3116916;28;20053;-70
2023/01/05 03:04:47;;;;;;;53.75;25.33;;;;;;;8.57;75.83;100471.84;3120796;28;20076;-70
2023/01/05 03:06:25;;;;;;;48.25;26.30;;;;;;;8.48;75.85;100452.16;3120803;28;20387;-70
2023/01/05 03:08:05;;;;;;;49.78;25.20;;;;;;;8.53;75.92;100465.88;3120668;28;20084;-71
2023/01/05 03:09:39;;;;;;;48.38;25.33;;;;;;;8.53;76.10;100459.84;3120794;28;20510;-70
2023/01/05 03:15:00;;;;;;;49.63;24.50;;;;;;;8.39;75.90;100461.03;3116277;28;20049;-71
2023/01/05 03:16:35;;;;;;;47.97;24.13;;;;;;;8.40;75.58;100462.75;3120342;28;20053;-71
2023/01/05 03:18:11;;;;;;;51.78;25.80;;;;;;;8.39;75.58;100461.03;3120747;28;20108;-71
2023/01/05 03:19:45;;;;;;;50.28;26.20;;;;;;;8.34;75.79;100446.44;3120518;28;20053;-69
2023/01/05 03:21:17;;;;;;;51.30;26.33;;;;;;;8.35;75.88;100461.13;3120399;28;20053;-71
2023/01/05 03:36:01;;;;;;;53.13;28.02;;;;;;;7.60;76.12;100369.59;3120366;28;20049;-70
2023/01/05 03:37:36;;;;;;;47.58;27.40;;;;;;;8.12;76.69;100448.72;3120573;28;20091;-70
2023/01/05 03:39:10;;;;;;;56.30;29.63;;;;;;;8.11;76.73;100444.44;3108152;28;20049;-70
2023/01/05 03:40:44;;;;;;;54.95;28.73;;;;;;;7.27;76.59;100302.97;3119880;28;20053;-70
2023/01/05 03:42:17;;;;;;;54.28;29.95;;;;;;;8.00;76.92;100416.16;3120187;28;20149;-70
2023/01/05 03:43:50;;;;;;;54.40;28.98;;;;;;;8.11;77.18;100439.25;3120223;28;20281;-69
2023/01/05 03:45:23;;;;;;;56.42;28.92;;;;;;;7.99;77.25;100422.25;3119788;28;20056;-69
2023/01/05 03:46:55;;;;;;;;;;;;;;;8.02;77.17;100439.47;3119964;28;20546;-69
2023/01/05 03:48:29;;;;;;;55.05;28.55;;;;;;;8.03;77.28;100433.38;3119860;28;19975;-69
2023/01/05 03:50:02;;;;;;;57.90;28.92;;;;;;;7.98;77.51;100426.56;3120091;28;20469;-70
2023/01/05 03:51:34;;;;;;;55.55;28.48;;;;;;;8.05;77.43;100435.06;3119906;28;20049;-70
2023/01/05 03:53:06;;;;;;;51.22;28.10;;;;;;;8.06;77.45;100433.31;3119827;28;20076;-69
2023/01/05 03:54:38;;;;;;;53.20;29.05;;;;;;;7.86;77.40;100400.94;3120082;28;20046;-70
2023/01/05 03:56:10;;;;;;;55.00;28.25;;;;;;;8.05;77.53;100442.00;3120313;28;20431;-70
2023/01/05 03:57:42;;;;;;;61.50;29.63;;;;;;;8.02;77.72;100429.09;3120132;28;20053;-70
2023/01/05 03:59:14;;;;;;;52.90;28.38;;;;;;;8.01;78.18;100433.41;3120305;28;20057;-70
2023/01/05 04:00:46;;;;;;;56.70;29.48;;;;;;;7.98;78.36;100423.97;3120248;28;20053;-70
2023/01/05 04:02:18;;;;;;;52.83;28.35;;;;;;;7.98;78.09;100417.94;3120081;28;20053;-69
2023/01/05 04:03:50;;;;;;;51.00;28.08;;;;;;;8.01;78.26;100427.38;3120191;28;20053;-70
2023/01/05 04:05:23;;;;;;;56.78;28.95;;;;;;;8.01;78.32;100424.78;3120136;28;20056;-70
2023/01/05 04:06:55;;;;;;;58.47;28.13;;;;;;;7.92;78.30;100411.16;3120456;28;20116;-69
2023/01/05 04:08:27;;;;;;;56.83;29.77;;;;;;;7.85;78.44;100404.41;3119958;28;20072;-69
2023/01/05 04:10:00;;;;;;;57.25;28.20;;;;;;;7.95;78.62;100416.25;3120108;28;20049;-69
2023/01/05 04:11:32;;;;;;;59.72;29.83;;;;;;;8.03;78.56;100425.59;3119929;28;20063;-70
2023/01/05 04:13:04;;;;;;;56.92;28.30;;;;;;;8.01;78.34;100425.63;3120218;28;20103;-71
2023/01/05 04:14:34;;;;;;;51.20;29.70;;;;;;;7.97;78.59;100414.50;3119603;28;20072;-70
2023/01/05 04:16:07;;;;;;;54.22;28.77;;;;;;;7.82;78.64;100385.50;3119666;28;20420;-70
2023/01/05 04:17:39;;;;;;;58.75;29.73;;;;;;;8.01;78.51;100417.00;3119906;28;20140;-69
2023/01/05 04:19:11;;;;;;;54.17;29.75;;;;;;;7.91;78.57;100401.69;3119919;28;20510;-70
2023/01/05 04:20:44;;;;;;;57.25;29.48;;;;;;;8.01;78.76;100417.00;3119492;28;20412;-70
2023/01/05 04:22:15;;;;;;;55.17;29.13;;;;;;;8.00;78.59;100423.94;3119810;28;20148;-69
2023/01/05 04:23:47;;;;;;;49.33;26.80;;;;;;;7.93;78.82;100405.09;3119805;28;20099;-67
2023/01/05 04:25:18;;;;;;;56.58;27.80;;;;;;;8.01;79.10;100415.25;3120056;28;20042;-69
2023/01/05 04:26:50;;;;;;;53.97;28.23;;;;;;;7.94;78.90;100398.16;3119718;28;20053;-69
2023/01/05 04:28:22;;;;;;;61.88;29.33;;;;;;;7.98;79.34;100400.63;3119733;28;20060;-69
2023/01/05 04:29:54;;;;;;;52.58;27.98;;;;;;;8.03;78.98;100410.03;3119759;28;20130;-69
2023/01/05 04:31:26;;;;;;;50.25;27.80;;;;;;;8.01;79.11;100406.63;3120015;28;20057;-71
2023/01/05 04:32:58;;;;;;;57.47;27.65;;;;;;;8.01;79.40;100406.63;3119629;28;20541;-70
2023/01/05 04:34:30;;;;;;;58.58;30.00;;;;;;;8.01;79.18;100404.88;3121085;28;20073;-71
2023/01/05 04:36:04;;;;;;;52.97;27.23;;;;;;;7.98;79.26;100398.03;3121605;28;20530;-70
2023/01/05 04:37:35;;;;;;;;;;;;;;;7.93;79.29;100406.84;3121518;28;20072;-68
2023/01/05 04:39:07;;;;;;;54.78;25.70;;;;;;;7.76;79.23;100376.13;3120336;28;19974;-69
2023/01/05 04:40:39;;;;;;;53.20;26.67;;;;;;;7.90;79.28;100396.53;3119581;28;20083;-71
2023/01/05 04:42:11;;;;;;;57.67;27.35;;;;;;;7.90;79.00;100399.97;3119819;28;20148;-68
2023/01/05 04:43:43;;;;;;;55.50;28.55;;;;;;;7.95;79.13;100407.63;3119579;28;20450;-70
2023/01/05 04:45:14;;;;;;;52.03;26.35;;;;;;;7.95;79.27;100403.28;3115165;28;20045;-69
2023/01/05 04:46:46;;;;;;;56.78;28.15;;;;;;;7.93;78.98;100394.72;3119360;28;20115;-71
2023/01/05 04:48:18;;;;;;;55.03;28.45;;;;;;;7.95;78.90;100402.44;3119405;28;20056;-71
2023/01/05 04:49:50;;;;;;;53.65;27.13;;;;;;;7.95;79.21;100400.69;3119822;28;20045;-71
2023/01/05 04:51:24;;;;;;;53.55;28.38;;;;;;;7.95;79.13;100397.25;3119689;28;20053;-70
2023/01/05 04:52:55;;;;;;;;;;;;;;;7.86;78.96;100395.75;3120228;28;20505;-70
2023/01/05 04:54:27;;;;;;;47.85;27.15;;;;;;;7.86;79.10;100397.47;3119377;28;19921;-70
2023/01/05 04:55:58;;;;;;;56.65;28.20;;;;;;;7.88;79.31;100396.56;3119715;28;20180;-70
2023/01/05 04:57:30;;;;;;;57.72;29.65;;;;;;;7.90;79.02;100397.38;3119457;28;20148;-70
2023/01/05 04:59:02;;;;;;;55.75;28.50;;;;;;;7.90;79.29;100392.19;3121339;28;20049;-71
2023/01/05 05:00:34;;;;;;;52.50;27.38;;;;;;;7.71;78.85;100363.25;3121927;28;20050;-69
2023/01/05 05:02:07;;;;;;;56.03;29.50;;;;;;;7.90;78.90;100393.94;3122045;28;20105;-70
2023/01/05 05:03:39;;;;;;;64.38;31.83;;;;;;;7.83;79.08;100382.84;3122301;28;20132;-70
2023/01/05 05:05:11;;;;;;;64.05;28.75;;;;;;;7.86;79.15;100390.56;3122537;28;20536;-69
2023/01/05 05:06:44;;;;;;;58.60;29.02;;;;;;;7.82;78.94;100378.56;3121641;28;20060;-68
2023/01/05 05:08:16;;;;;;;61.83;31.23;;;;;;;7.81;79.24;100384.66;3122228;28;20056;-70
2023/01/05 05:09:48;;;;;;;56.40;28.98;;;;;;;7.85;79.12;100385.41;3122035;28;20067;-71
2023/01/05 05:11:19;;;;;;;60.45;30.63;;;;;;;7.84;79.08;100383.69;3121463;28;20675;-72
2023/01/05 05:12:52;;;;;;;54.42;28.27;;;;;;;7.83;79.09;100387.19;3121763;28;20053;-72
2023/01/05 05:14:24;;;;;;;62.77;30.17;;;;;;;7.81;79.28;100384.66;3119987;28;20492;-72
2023/01/05 05:15:57;;;;;;;53.67;28.95;;;;;;;7.69;79.19;100365.06;3122071;28;20053;-71
2023/01/05 05:17:29;;;;;;;61.13;30.65;;;;;;;7.78;79.13;100381.25;3121803;28;20111;-71
2023/01/05 05:19:01;;;;;;;60.08;30.05;;;;;;;7.74;79.06;100380.47;3122100;28;20081;-71
2023/01/05 05:20:33;;;;;;;52.40;26.98;;;;;;;7.73;78.80;100383.97;3121836;28;20146;-69
2023/01/05 05:22:07;;;;;;;56.83;28.17;;;;;;;7.72;79.17;100382.28;3122097;28;21395;-68
2023/01/05 05:23:39;;;;;;;55.95;28.98;;;;;;;7.71;79.14;100386.59;3119700;28;20060;-71
2023/01/05 05:25:11;;;;;;;98.90;53.58;;;;;;;7.74;79.06;100393.44;3120880;28;20045;-68
2023/01/05 05:26:42;;;;;;;126.30;61.97;;;;;;;7.65;79.22;100370.34;3121694;28;20049;-70
2023/01/05 05:28:14;;;;;;;109.18;53.70;;;;;;;7.72;79.35;100384.88;3121669;28;20049;-69
2023/01/05 05:29:46;;;;;;;125.88;61.42;;;;;;;7.73;79.48;100381.38;3121653;28;20274;-65
2023/01/05 05:31:18;;;;;;;67.65;34.50;;;;;;;7.73;79.66;100386.56;3121782;28;20060;-71
2023/01/05 05:32:50;;;;;;;59.95;31.27;;;;;;;7.63;79.65;100362.63;3121438;28;20412;-71
2023/01/05 05:34:22;;;;;;;60.42;30.33;;;;;;;7.71;79.47;100378.81;3121198;28;20124;-69
2023/01/05 05:35:54;;;;;;;60.25;30.13;;;;;;;7.72;79.56;100375.34;3121602;28;20099;-69
2023/01/05 05:37:27;;;;;;;58.85;31.33;;;;;;;7.71;79.69;100371.03;3121653;28;20062;-71
2023/01/05 05:38:58;;;;;;;57.90;29.17;;;;;;;7.69;79.33;100370.25;3121211;28;20057;-68
2023/01/05 05:40:30;;;;;;;61.22;30.23;;;;;;;7.69;79.24;100374.56;3121375;28;20506;-70
2023/01/05 05:42:02;;;;;;;54.90;29.17;;;;;;;7.42;79.27;100325.06;3121418;28;20068;-69
2023/01/05 05:43:34;;;;;;;57.40;30.00;;;;;;;7.67;79.56;100372.00;3120481;28;20111;-71
2023/01/05 05:45:07;;;;;;;51.83;27.60;;;;;;;7.67;79.29;100360.78;3121167;28;20368;-69
2023/01/05 05:46:39;;;;;;;55.13;29.88;;;;;;;7.49;79.30;100342.19;3121353;28;20050;-68
2023/01/05 05:48:11;;;;;;;57.45;29.48;;;;;;;7.15;79.27;100290.31;3121453;28;20076;-68
2023/01/05 05:49:42;;;;;;;60.22;30.98;;;;;;;7.62;79.43;100358.31;3114817;28;20103;-71
2023/01/05 05:51:15;;;;;;;115.95;56.95;;;;;;;7.63;79.40;100359.16;3121405;28;20369;-71
2023/01/05 05:52:47;;;;;;;143.77;65.70;;;;;;;7.65;79.48;100358.22;3120837;28;20439;-70
2023/01/05 05:54:19;;;;;;;131.43;64.13;;;;;;;7.62;79.64;100357.47;3121238;28;20109;-68
2023/01/05 05:55:51;;;;;;;74.00;36.30;;;;;;;7.65;79.82;100362.56;3121543;28;20053;-74
2023/01/05 05:57:23;;;;;;;71.38;33.78;;;;;;;7.63;79.73;100370.41;3120656;28;20095;-69
2023/01/05 05:58:55;;;;;;;61.05;30.65;;;;;;;7.55;79.59;100351.56;3121673;28;20060;-71
2023/01/05 06:00:27;;;;;;;72.38;31.98;;;;;;;7.63;79.72;100369.50;3120480;28;20064;-70
2023/01/05 06:01:59;;;;;;;61.95;32.15;;;;;;;7.62;79.69;100368.66;3112332;28;20081;-72
2023/01/05 06:03:31;;;;;;;60.20;31.48;;;;;;;7.61;79.53;100371.31;3120130;28;20442;-72
2023/01/05 06:05:02;;;;;;;66.10;31.50;;;;;;;7.61;79.49;100372.16;3122597;28;20045;-73
2023/01/05 06:06:34;;;;;;;69.53;34.13;;;;;;;7.49;79.62;100356.91;3129007;28;20056;-71
2023/01/05 06:08:07;;;;;;;62.60;32.75;;;;;;;7.59;79.57;100384.28;3120755;28;20053;-71
2023/01/05 06:09:39;;;;;;;69.65;33.25;;;;;;;7.59;79.38;100383.44;3120516;28;20065;-69
2023/01/05 06:11:11;;;;;;;69.00;33.45;;;;;;;7.59;79.55;100370.50;3120021;28;20045;-67
2023/01/05 06:12:43;;;;;;;71.75;32.00;;;;;;;7.58;79.39;100369.66;3119829;28;20063;-68
2023/01/05 06:14:14;;;;;;;64.15;32.13;;;;;;;7.60;79.60;100382.56;3120393;28;20499;-69
2023/01/05 06:15:46;;;;;;;75.97;34.33;;;;;;;7.57;79.59;100367.06;3120608;28;20053;-69
2023/01/05 06:17:18;;;;;;;62.05;33.28;;;;;;;7.64;79.71;100382.47;3120855;28;20045;-68
2023/01/05 06:18:50;;;;;;;75.93;35.85;;;;;;;7.68;79.59;100384.06;3121225;28;20084;-68
2023/01/05 06:20:22;;;;;;;72.18;36.08;;;;;;;7.72;79.84;100383.13;3121170;28;20053;-68
2023/01/05 06:21:54;;;;;;;68.90;35.97;;;;;;;7.77;79.87;100377.81;3120971;28;20052;-66
2023/01/05 06:23:27;;;;;;;76.95;36.95;;;;;;;7.83;79.94;100387.19;3121021;28;20126;-69
2023/01/05 06:24:59;;;;;;;;;;;;;;;7.81;80.19;100384.66;3121469;28;20104;-66
2023/01/05 06:26:30;;;;;;;;;;;;;;;7.80;80.31;100382.09;3121728;28;19929;-64
2023/01/05 06:28:02;;;;;;;;;;;;;;;7.82;80.38;100381.16;3121224;28;20411;-66
2023/01/05 06:29:34;;;;;;;;;;;;;;;7.86;80.23;100380.19;3121618;28;19921;-65
2023/01/05 06:31:06;;;;;;;;;;;;;;;7.92;80.20;100385.22;3122691;28;20284;-66
2023/01/05 06:32:37;;;;;;;;;;;;;;;7.98;80.25;100382.47;3121315;28;19928;-64
2023/01/05 06:34:09;;;;;;;;;;;;;;;8.06;79.93;100378.84;3121321;28;19921;-67
2023/01/05 06:35:40;;;;;;;;;;;;;;;8.10;79.81;100381.31;3121928;28;20023;-69
2023/01/05 06:37:12;;;;;;;;;;;;;;;8.15;79.81;100378.59;3121398;28;19975;-67
2023/01/05 06:38:45;;;;;;;;;;;;;;;8.20;79.72;100371.56;3120993;28;20317;-68
2023/01/05 06:40:17;;;;;;;;;;;;;;;8.27;79.55;100372.25;3119663;28;19921;-66
2023/01/05 06:41:48;;;;;;;;;;;;;;;8.35;79.53;100372.91;3121290;28;20386;-66
2023/01/05 06:43:20;;;;;;;;;;;;;;;8.44;79.77;100370.06;3120878;28;20390;-65
2023/01/05 06:44:51;;;;;;;;;;;;;;;8.54;79.44;100368.06;3120856;28;20310;-65
2023/01/05 06:46:23;;;;;;;;;;;;;;;8.65;79.03;100377.28;3121314;28;20338;-65
2023/01/05 06:47:56;;;;;;;;;;;;;;;8.77;79.10;100376.06;3121413;28;19921;-65
2023/01/05 06:49:27;;;;;;;;;;;;;;;8.87;78.78;100374.94;3121043;28;19920;-65
2023/01/05 06:50:59;;;;;;;;;;;;;;;8.97;78.42;100377.25;3121041;28;19920;-64
2023/01/05 06:52:35;;;;;;;;;;;;;;;9.04;78.36;100373.56;3119458;28;19931;-66
2023/01/05 06:54:08;;;;;;;;;;;;;;;9.11;77.96;100368.16;3120898;28;19925;-66
2023/01/05 06:55:39;;;;;;;;;;;;;;;9.20;77.78;100367.03;3120590;28;19928;-65
2023/01/05 06:57:11;;;;;;;;;;;;;;;9.29;77.54;100356.34;3121069;28;19929;-66
2023/01/05 06:58:43;;;;;;;;;;;;;;;9.37;77.35;100363.88;3121567;28;19921;-66
2023/01/05 07:00:15;;;;;;;;;;;;;;;9.45;76.82;100361.06;3120526;28;19921;-65
2023/01/05 07:01:47;;;;;;;;;;;;;;;9.54;76.74;100343.41;3120706;28;19921;-65
2023/01/05 07:03:18;;;;;;;;;;;;;;;9.67;76.36;100351.69;3120387;28;19921;-65
2023/01/05 07:04:50;;;;;;;;;;;;;;;9.81;76.17;100348.63;3121254;28;19979;-65
2023/01/05 07:06:21;;;;;;;;;;;;;;;9.95;76.08;100353.34;3121414;28;19948;-65
2023/01/05 07:07:53;;;;;;;;;;;;;;;10.09;75.62;100345.94;3120192;28;19921;-66
2023/01/05 07:09:26;;;;;;;;;;;;;;;10.24;75.25;100348.00;3120428;28;19921;-68
2023/01/05 07:10:57;;;;;;;;;;;;;;;10.43;75.18;100355.19;3121315;28;19924;-64
2023/01/05 07:12:29;;;;;;;;;;;;;;;10.61;74.50;100346.72;3120734;28;20011;-66
2023/01/05 07:14:00;;;;;;;;;;;;;;;10.80;74.19;100351.25;3121227;28;19932;-64
2023/01/05 07:15:32;;;;;;;;;;;;;;;10.95;73.92;100345.47;3120991;28;19921;-64
2023/01/05 07:17:04;;;;;;;;;;;;;;;11.10;73.13;100338.81;3121028;28;19921;-64
2023/01/05 07:18:35;;;;;;;;;;;;;;;11.21;72.57;100339.25;3121100;28;19924;-65
2023/01/05 07:20:07;;;;;;;;;;;;;;;11.31;72.27;100332.75;3120666;28;19987;-66
2023/01/05 07:21:39;;;;;;;;;;;;;;;11.48;71.72;100329.47;3120629;28;19956;-66
2023/01/05 07:23:11;;;;;;;;;;;;;;;11.71;71.39;100332.91;3120279;28;19925;-65
2023/01/05 07:24:44;;;;;;;;;;;;;;;11.95;70.65;100326.69;3120789;28;19925;-65
2023/01/05 07:26:15;;;;;;;;;;;;;;;12.18;69.63;100317.00;3120363;28;19925;-68
2023/01/05 07:27:50;;;;;;;;;;;;;;;12.41;69.29;100316.00;3121237;28;19921;-65
2023/01/05 07:29:21;;;;;;;;;;;;;;;12.64;68.52;100307.16;3120557;28;20295;-65
2023/01/05 07:30:53;;;;;;;;;;;;;;;12.86;67.91;100312.22;3121129;28;19975;-65
2023/01/05 07:32:24;;;;;;;;;;;;;;;13.11;67.19;100307.56;3120169;28;19994;-66
2023/01/05 07:33:56;;;;;;;;;;;;;;;13.39;66.58;100301.00;3120700;28;20680;-64
2023/01/05 07:35:28;;;;;;;;;;;;;;;13.67;65.96;100304.91;3120880;28;19921;-65
2023/01/05 07:36:59;;;;;;;;;;;;;;;13.94;65.38;100303.50;3120840;28;19925;-65
2023/01/05 07:38:31;;;;;;;;;;;;;;;14.19;64.41;100307.47;3120620;28;19990;-64
2023/01/05 07:40:05;;;;;;;;;;;;;;;14.46;64.00;100303.38;3120692;28;20417;-65
2023/01/05 07:41:37;;;;;;;;;;;;;;;14.75;63.26;100301.00;3120675;28;19924;-70
2023/01/05 07:43:09;;;;;;;;;;;;;;;15.05;63.08;100295.84;3120629;28;19936;-65
2023/01/05 07:44:40;;;;;;;;;;;;;;;15.27;61.83;100295.50;3120241;28;19928;-65
2023/01/05 07:46:12;;;;;;;;;;;;;;;15.45;61.50;100293.59;3118501;28;19925;-70
2023/01/05 07:47:43;;;;;;;;;;;;;;;15.57;60.71;100289.44;3119928;28;19925;-71
2023/01/05 07:49:15;;;;;;;;;;;;;;;15.64;59.88;100286.34;3119788;28;19921;-67